Time;durP1;ratioP1;P1;durP2;ratioP2;P2;SDS_P1;SDS_P2;PMS_P1;PMS_P2;Temp;Humidity;BMP_temperature;BMP_pressure;BME280_temperature;BME280_humidity;BME280_pressure;Samples;Min_cycle;Max_cycle;Signal;HPM_P1;HPM_P2
2023/06/10 00:01:36;;;;;;;0.98;0.75;;;;;;;19.72;73.92;101151.72;4985323;28;20560;-67
2023/06/10 00:04:02;;;;;;;0.70;0.50;;;;;;;19.60;74.07;101150.25;5001747;28;20486;-67
2023/06/10 00:06:35;;;;;;;1.33;0.60;;;;;;;19.57;73.91;101151.03;5005094;28;20069;-67
2023/06/10 00:09:05;;;;;;;0.60;0.50;;;;;;;19.44;74.11;101150.00;4997225;28;20711;-67
2023/06/10 00:11:32;;;;;;;0.82;0.47;;;;;;;19.51;73.58;101143.69;5003589;28;20068;-67
2023/06/10 00:13:58;;;;;;;0.77;0.60;;;;;;;19.36;73.69;101147.69;4982328;28;20038;-67
2023/06/10 00:16:23;;;;;;;3.53;1.35;;;;;;;19.37;73.80;101144.59;4998927;28;20034;-68
2023/06/10 00:18:51;;;;;;;1.40;0.70;;;;;;;19.36;73.79;101144.97;4986817;28;20481;-67
2023/06/10 00:21:17;;;;;;;0.77;0.77;;;;;;;19.29;73.72;101148.50;5009665;28;20117;-68
2023/06/10 00:23:43;;;;;;;2.92;0.98;;;;;;;19.23;73.88;101141.91;4980934;28;20035;-67
2023/06/10 00:26:09;;;;;;;2.08;0.60;;;;;;;19.14;74.28;101141.59;4996554;28;20030;-67
2023/06/10 00:28:34;;;;;;;1.80;0.73;;;;;;;19.05;74.66;101143.22;4990698;28;20501;-67
2023/06/10 00:31:00;;;;;;;0.77;0.60;;;;;;;19.03;74.74;101140.13;4990980;28;20136;-67
2023/06/10 00:33:26;;;;;;;2.97;0.63;;;;;;;19.08;74.58;101147.88;5020073;28;20094;-67
2023/06/10 00:35:51;;;;;;;1.35;0.65;;;;;;;19.08;74.25;101151.41;4970068;28;20034;-67
2023/06/10 00:38:17;;;;;;;1.65;0.40;;;;;;;19.08;73.68;101151.41;5016394;28;20437;-67
2023/06/10 00:40:42;;;;;;;2.28;0.68;;;;;;;19.06;74.09;101150.22;4999287;28;20133;-67
2023/06/10 00:43:08;;;;;;;0.65;0.50;;;;;;;19.03;74.06;101154.53;4996077;28;20506;-66
2023/06/10 00:45:35;;;;;;;4.35;1.58;;;;;;;18.88;74.49;101153.06;4988905;28;20038;-67
2023/06/10 00:48:01;;;;;;;2.45;0.73;;;;;;;18.80;74.50;101154.28;4986582;28;20019;-67
2023/06/10 00:50:27;;;;;;;1.13;0.85;;;;;;;18.78;74.33;101151.94;5005966;28;20397;-67
2023/06/10 00:52:54;;;;;;;0.70;0.70;;;;;;;18.78;74.61;101157.41;5010395;28;20030;-67
2023/06/10 00:55:20;;;;;;;1.05;0.65;;;;;;;18.60;75.19;101161.41;5008671;28;20030;-67
2023/06/10 00:57:48;;;;;;;1.38;0.70;;;;;;;18.58;75.04;101150.88;4966465;28;20118;-67
2023/06/10 01:00:15;;;;;;;1.55;0.82;;;;;;;18.61;74.84;101157.50;4999072;28;20409;-67
2023/06/10 01:02:41;;;;;;;1.20;0.70;;;;;;;18.58;74.62;101158.28;4995760;28;20040;-68
2023/06/10 01:05:08;;;;;;;0.85;0.60;;;;;;;18.52;74.75;101152.47;4996492;28;20053;-67
2023/06/10 01:07:39;;;;;;;0.90;0.70;;;;;;;18.48;74.57;101159.09;4991771;28;20044;-66
2023/06/10 01:10:27;;;;;;;0.85;0.50;;;;;;;18.57;74.56;101159.44;4993346;28;20088;-68
2023/06/10 01:13:06;;;;;;;1.20;0.80;;;;;;;18.58;74.25;101161.03;4987112;28;20065;-67
2023/06/10 01:15:33;;;;;;;0.90;0.60;;;;;;;18.61;74.09;101162.94;5004542;28;20022;-67
2023/06/10 01:18:04;;;;;;;0.60;0.57;;;;;;;18.53;74.09;101162.19;4979626;28;20104;-67
2023/06/10 01:20:32;;;;;;;2.17;0.82;;;;;;;18.53;74.02;101162.19;4989518;28;20034;-67
2023/06/10 01:22:59;;;;;;;0.75;0.43;;;;;;;18.54;73.86;101163.75;4999543;28;20105;-67
2023/06/10 01:25:28;;;;;;;5.82;0.50;;;;;;;18.47;73.97;101171.19;4994867;28;20029;-66
2023/06/10 01:28:11;;;;;;;2.05;1.30;;;;;;;18.42;73.75;101172.38;5019295;28;20050;-67
2023/06/10 01:31:00;;;;;;;1.13;0.47;;;;;;;18.33;73.83;101163.03;5006055;28;20442;-67
2023/06/10 01:33:29;;;;;;;1.10;0.73;;;;;;;18.36;73.92;101167.69;4993099;28;20458;-67
2023/06/10 01:35:57;;;;;;;0.30;0.30;;;;;;;18.22;74.41;101159.53;5005267;28;20052;-67
2023/06/10 01:38:25;;;;;;;0.95;0.55;;;;;;;18.16;74.75;101161.88;4983960;28;20030;-67
2023/06/10 01:40:53;;;;;;;0.57;0.40;;;;;;;18.12;74.29;101163.84;5002544;28;20168;-67
2023/06/10 01:43:20;;;;;;;0.38;0.28;;;;;;;18.13;74.33;101159.19;4985712;28;20022;-67
2023/06/10 01:45:46;;;;;;;1.55;0.57;;;;;;;18.14;74.32;101160.75;4990274;28;20033;-67
2023/06/10 01:48:14;;;;;;;2.85;0.77;;;;;;;17.91;75.06;101159.22;4991335;28;20041;-67
2023/06/10 01:50:41;;;;;;;2.58;1.25;;;;;;;17.89;75.22;101160.78;4985710;28;20038;-67
2023/06/10 01:53:06;;;;;;;0.32;0.22;;;;;;;17.94;74.92;101158.44;4989135;28;20478;-67
2023/06/10 01:55:32;;;;;;;0.90;0.55;;;;;;;17.97;74.73;101154.16;4991389;28;20160;-66
2023/06/10 01:58:00;;;;;;;2.47;1.13;;;;;;;17.92;74.87;101158.03;5005007;28;20492;-67
2023/06/10 02:00:25;;;;;;;2.60;0.50;;;;;;;17.93;75.11;101151.44;5013244;28;20066;-66
2023/06/10 02:02:51;;;;;;;0.60;0.50;;;;;;;17.97;74.51;101146.75;4987437;28;20030;-67
2023/06/10 02:05:16;;;;;;;1.05;0.55;;;;;;;17.94;74.54;101154.94;5011113;28;20061;-67
2023/06/10 02:07:42;;;;;;;1.48;0.60;;;;;;;17.82;75.37;101156.13;5000305;28;20026;-67
2023/06/10 02:10:07;;;;;;;0.63;0.43;;;;;;;17.73;75.33;101160.41;4986337;28;20607;-67
2023/06/10 02:12:33;;;;;;;0.63;0.40;;;;;;;17.63;75.86;101153.03;4989610;28;20560;-67
2023/06/10 02:14:58;;;;;;;0.70;0.50;;;;;;;17.68;75.93;101153.41;5004842;28;20061;-66
2023/06/10 02:17:24;;;;;;;1.05;0.90;;;;;;;17.71;76.06;101160.03;5005311;28;20049;-67
2023/06/10 02:19:52;;;;;;;0.47;0.20;;;;;;;17.65;75.84;101154.16;4987288;28;20038;-67
2023/06/10 02:22:22;;;;;;;0.55;0.50;;;;;;;17.71;75.21;101158.06;4993924;28;20429;-68
2023/06/10 02:24:48;;;;;;;0.68;0.50;;;;;;;17.70;74.95;101151.06;4978808;28;20088;-67
2023/06/10 02:27:15;;;;;;;0.65;0.52;;;;;;;17.62;75.46;101162.34;5009125;28;20038;-67
2023/06/10 02:29:41;;;;;;;0.63;0.60;;;;;;;17.56;75.70;101145.63;4987721;28;20022;-67
2023/06/10 02:32:07;;;;;;;0.75;0.43;;;;;;;17.55;75.76;101154.19;4984413;28;20426;-67
2023/06/10 02:34:33;;;;;;;2.05;0.47;;;;;;;17.54;75.93;101156.13;4991140;28;20025;-66
2023/06/10 02:36:59;;;;;;;0.38;0.30;;;;;;;17.53;75.86;101154.59;4991216;28;20034;-67
2023/06/10 02:39:25;;;;;;;0.22;0.22;;;;;;;17.52;75.98;101154.94;5019571;28;20493;-67
2023/06/10 02:41:51;;;;;;;2.05;0.73;;;;;;;17.62;75.65;101152.25;5008346;28;20233;-66
2023/06/10 02:44:18;;;;;;;1.27;0.55;;;;;;;17.46;75.76;101151.06;4990136;28;20036;-66
2023/06/10 02:46:44;;;;;;;0.40;0.40;;;;;;;17.41;76.52;101156.88;5001849;28;20034;-66
2023/06/10 02:49:11;;;;;;;0.32;0.30;;;;;;;17.36;76.36;101162.72;4977978;28;20072;-67
2023/06/10 02:51:37;;;;;;;0.82;0.52;;;;;;;17.42;76.19;101153.75;4999708;28;20256;-67
2023/06/10 02:54:03;;;;;;;0.40;0.40;;;;;;;17.34;76.06;101159.59;4986140;28;20051;-66
2023/06/10 02:56:29;;;;;;;1.33;0.68;;;;;;;17.31;76.44;101163.88;4990889;28;20482;-67
2023/06/10 02:58:57;;;;;;;0.70;0.45;;;;;;;17.33;76.14;101161.53;4979971;28;20026;-68
2023/06/10 03:01:25;;;;;;;0.73;0.40;;;;;;;17.24;76.47;101163.88;4983272;28;20515;-67
2023/06/10 03:04:02;;;;;;;0.90;0.65;;;;;;;17.23;76.58;101165.03;4972436;28;20026;-67
2023/06/10 03:06:29;;;;;;;2.67;0.57;;;;;;;17.23;76.93;101175.16;4993517;28;20036;-66
2023/06/10 03:09:04;;;;;;;0.30;0.28;;;;;;;17.17;76.65;101169.28;5018870;28;20025;-67
2023/06/10 03:11:30;;;;;;;1.92;0.73;;;;;;;17.15;76.76;101166.97;4988242;28;20057;-66
2023/06/10 03:13:57;;;;;;;1.38;0.80;;;;;;;17.13;77.02;101168.50;4984510;28;20052;-66
2023/06/10 03:16:27;;;;;;;1.70;0.77;;;;;;;17.18;76.78;101168.13;4973159;28;20030;-66
2023/06/10 03:18:53;;;;;;;0.50;0.50;;;;;;;17.21;77.12;101175.50;5009124;28;20040;-67
2023/06/10 03:21:19;;;;;;;0.17;0.10;;;;;;;17.15;76.77;101172.41;4988790;28;20117;-66
2023/06/10 03:23:45;;;;;;;0.38;0.30;;;;;;;17.13;77.14;101165.78;4997689;28;20032;-67
2023/06/10 03:26:12;;;;;;;0.90;0.40;;;;;;;17.10;77.15;101169.28;4984267;28;20034;-67
2023/06/10 03:28:40;;;;;;;0.70;0.60;;;;;;;17.09;77.67;101173.94;4973127;28;20032;-67
2023/06/10 03:31:07;;;;;;;0.52;0.32;;;;;;;17.09;77.64;101165.78;4991142;28;20030;-67
2023/06/10 03:33:33;;;;;;;1.45;0.50;;;;;;;17.03;77.65;101170.03;4979443;28;20027;-67
2023/06/10 03:35:59;;;;;;;1.48;0.52;;;;;;;17.09;77.50;101165.00;5003566;28;20033;-66
2023/06/10 03:38:25;;;;;;;2.47;1.02;;;;;;;17.07;77.59;101164.63;4995258;28;20589;-67
2023/06/10 03:40:50;;;;;;;1.20;0.30;;;;;;;17.15;77.58;101171.63;4989480;28;20413;-68
2023/06/10 03:43:17;;;;;;;0.32;0.30;;;;;;;17.08;77.62;101163.44;4986029;28;20452;-67
2023/06/10 03:45:42;;;;;;;1.27;0.88;;;;;;;17.10;77.55;101172.00;4984956;28;20018;-67
2023/06/10 03:48:09;;;;;;;3.63;0.55;;;;;;;17.03;78.08;101164.59;4985326;28;20057;-68
2023/06/10 03:50:42;;;;;;;2.05;0.45;;;;;;;16.91;78.51;101172.34;4989360;28;20928;-67
2023/06/10 03:53:07;;;;;;;1.00;0.50;;;;;;;16.99;78.43;101171.22;4995441;28;20033;-67
2023/06/10 03:55:33;;;;;;;0.98;0.47;;;;;;;17.03;78.30;101172.75;4988667;28;20052;-67
2023/06/10 03:57:59;;;;;;;0.38;0.38;;;;;;;17.11;77.80;101182.50;4985865;28;20029;-67
2023/06/10 04:00:25;;;;;;;2.92;0.60;;;;;;;17.02;78.37;101176.66;4988741;28;20494;-67
2023/06/10 04:02:51;;;;;;;3.40;0.85;;;;;;;17.13;78.31;101174.72;4981689;28;20049;-68
2023/06/10 04:05:28;;;;;;;0.95;0.32;;;;;;;17.15;77.86;101179.78;4985508;28;20057;-67
2023/06/10 04:07:54;;;;;;;0.68;0.40;;;;;;;17.30;77.25;101178.66;4994733;28;20037;-67
2023/06/10 04:10:20;;;;;;;1.73;0.70;;;;;;;17.22;77.50;101177.09;4992821;28;20028;-67
2023/06/10 04:12:45;;;;;;;2.58;1.35;;;;;;;17.28;77.99;101177.47;4983763;28;20026;-67
2023/06/10 04:15:12;;;;;;;0.40;0.40;;;;;;;17.25;78.17;101189.91;4995966;28;20092;-68
2023/06/10 04:17:38;;;;;;;0.10;0.10;;;;;;;17.29;77.96;101171.66;4972817;28;20034;-67
2023/06/10 04:20:06;;;;;;;0.40;0.28;;;;;;;17.34;78.08;101170.50;4986956;28;20040;-67
2023/06/10 04:22:32;;;;;;;0.10;0.10;;;;;;;17.37;78.09;101175.94;5011653;28;20025;-68
2023/06/10 04:24:58;;;;;;;0.60;0.20;;;;;;;17.38;77.81;101174.75;5007250;28;20038;-68
2023/06/10 04:27:24;;;;;;;0.75;0.47;;;;;;;17.35;78.59;101175.53;4987433;28;20117;-67
2023/06/10 04:29:53;;;;;;;0.30;0.30;;;;;;;17.39;78.52;101175.53;4988410;28;20491;-67
2023/06/10 04:32:19;;;;;;;0.25;0.25;;;;;;;17.38;78.71;101179.44;5003530;28;20041;-67
2023/06/10 04:34:45;;;;;;;0.30;0.22;;;;;;;17.46;78.27;101173.59;4982186;28;20482;-68
2023/06/10 04:37:10;;;;;;;0.68;0.15;;;;;;;17.51;77.98;101177.94;4971389;28;20033;-67
2023/06/10 04:39:36;;;;;;;0.15;0.15;;;;;;;17.57;77.83;101176.38;5007774;28;20115;-68
2023/06/10 04:42:02;;;;;;;0.10;0.10;;;;;;;17.59;78.35;101183.00;4988951;28;20041;-68
2023/06/10 04:44:30;;;;;;;0.32;0.22;;;;;;;17.61;78.07;101171.72;4978304;28;20029;-67
2023/06/10 04:46:56;;;;;;;0.25;0.10;;;;;;;17.74;77.75;101184.56;4987276;28;20085;-67
2023/06/10 04:49:24;;;;;;;0.90;0.20;;;;;;;17.83;76.88;101176.75;4984809;28;20059;-68
2023/06/10 04:51:51;;;;;;;2.05;0.40;;;;;;;17.75;77.31;101188.81;4998447;28;20136;-67
2023/06/10 04:54:17;;;;;;;0.70;0.30;;;;;;;17.79;77.47;101181.41;4983944;28;20034;-67
2023/06/10 04:56:42;;;;;;;0.30;0.30;;;;;;;17.79;77.27;101178.69;4990074;28;20493;-67
2023/06/10 04:59:07;;;;;;;0.15;0.15;;;;;;;17.85;77.50;101179.84;5006837;28;20105;-67
2023/06/10 05:01:33;;;;;;;0.32;0.25;;;;;;;17.89;77.83;101186.09;5006137;28;20413;-67
2023/06/10 05:03:58;;;;;;;0.85;0.45;;;;;;;17.96;77.21;101183.34;5014653;28;20464;-69
2023/06/10 05:06:24;;;;;;;1.10;0.40;;;;;;;18.09;77.21;101182.94;4973139;28;20459;-67
2023/06/10 05:08:49;;;;;;;0.77;0.40;;;;;;;18.11;77.03;101183.34;5002120;28;20105;-67
2023/06/10 05:11:15;;;;;;;1.30;0.60;;;;;;;18.19;76.97;101182.16;5003961;28;20484;-68
2023/06/10 05:13:42;;;;;;;1.00;0.65;;;;;;;18.73;77.13;101176.94;4991646;28;20068;-66
2023/06/10 05:16:08;;;;;;;0.28;0.20;;;;;;;19.49;74.51;101181.56;4991440;28;20037;-67
2023/06/10 05:18:33;;;;;;;1.00;0.40;;;;;;;20.09;71.64;101186.50;5007518;28;20029;-67
2023/06/10 05:21:20;;;;;;;0.10;0.10;;;;;;;20.68;68.45;101198.78;5016533;28;20044;-69
2023/06/10 05:23:45;;;;;;;3.15;0.85;;;;;;;21.25;65.36;101205.06;4933354;29;20079;-67
2023/06/10 05:26:11;;;;;;;0.35;0.35;;;;;;;21.66;62.89;101195.84;4947923;29;20055;-67
2023/06/10 05:28:36;;;;;;;0.40;0.10;;;;;;;21.86;61.42;101200.22;4931220;29;20056;-66
2023/06/10 05:31:01;;;;;;;0.20;0.20;;;;;;;22.09;61.33;101207.66;4950606;28;20047;-66
2023/06/10 05:33:27;;;;;;;8.27;0.50;;;;;;;22.29;59.66;101202.97;4959576;28;20054;-67
2023/06/10 05:35:53;;;;;;;1.55;0.40;;;;;;;22.38;59.15;101203.19;4948953;28;20069;-66
2023/06/10 05:38:18;;;;;;;0.63;0.47;;;;;;;22.47;59.40;101205.38;4947712;29;20444;-66
2023/06/10 05:40:44;;;;;;;1.38;0.30;;;;;;;22.70;58.47;101206.13;4949602;29;20062;-67
2023/06/10 05:43:09;;;;;;;0.82;0.28;;;;;;;22.18;58.32;101207.91;4949437;29;20051;-66
2023/06/10 05:45:35;;;;;;;1.85;0.80;;;;;;;22.28;58.60;101204.16;4946059;28;20039;-67
2023/06/10 05:48:00;;;;;;;1.27;0.50;;;;;;;22.51;58.65;101201.38;4955094;28;20122;-67
2023/06/10 05:50:25;;;;;;;0.52;0.15;;;;;;;22.72;59.20;101194.69;4953634;28;20027;-67
2023/06/10 05:52:53;;;;;;;0.80;0.70;;;;;;;22.84;57.45;101194.81;4950504;28;20138;-66
2023/06/10 05:55:18;;;;;;;0.10;0.10;;;;;;;22.99;57.64;101196.06;4948580;29;20058;-66
2023/06/10 05:57:44;;;;;;;0.20;0.20;;;;;;;23.18;57.72;101198.00;4944448;29;20039;-68
2023/06/10 06:00:10;;;;;;;0.60;0.20;;;;;;;23.07;56.81;101185.69;4959708;28;20042;-66
2023/06/10 06:02:38;;;;;;;0.55;0.25;;;;;;;23.04;57.10;101187.31;4998489;28;20100;-67
2023/06/10 06:05:07;;;;;;;1.58;0.20;;;;;;;23.14;56.27;101194.56;4984777;28;20545;-68
2023/06/10 06:07:32;;;;;;;1.67;0.43;;;;;;;23.18;57.03;101184.25;5004017;28;20108;-66
2023/06/10 06:09:58;;;;;;;1.13;0.30;;;;;;;23.23;56.77;101189.22;5007850;28;20106;-67
2023/06/10 06:12:23;;;;;;;0.32;0.20;;;;;;;23.27;56.33;101183.66;5009989;28;20034;-67
2023/06/10 06:14:49;;;;;;;0.50;0.30;;;;;;;23.13;56.45;101186.75;5008933;28;20042;-69
2023/06/10 06:17:17;;;;;;;1.08;0.13;;;;;;;23.29;56.88;101187.53;4997592;28;20398;-68
2023/06/10 06:19:43;;;;;;;2.78;0.43;;;;;;;23.35;56.75;101182.31;4971789;28;20029;-66
2023/06/10 06:22:08;;;;;;;0.38;0.38;;;;;;;23.17;56.25;101185.44;5007313;28;20275;-66
2023/06/10 06:24:34;;;;;;;1.50;0.47;;;;;;;23.04;57.19;101176.31;5002311;28;20037;-66
2023/06/10 06:26:59;;;;;;;0.95;0.20;;;;;;;23.29;57.56;101189.50;5006073;28;20453;-66
2023/06/10 06:29:24;;;;;;;0.35;0.30;;;;;;;23.21;56.29;101179.84;5000607;28;20042;-66
2023/06/10 06:31:50;;;;;;;0.20;0.20;;;;;;;23.39;56.16;101182.22;4978210;28;20042;-66
2023/06/10 06:34:15;;;;;;;0.60;0.30;;;;;;;23.46;56.29;101177.31;5005408;28;20129;-67
2023/06/10 06:36:41;;;;;;;0.52;0.32;;;;;;;23.65;56.50;101186.72;5010542;28;20041;-66
2023/06/10 06:39:27;;;;;;;2.67;0.47;;;;;;;23.62;56.38;101176.53;5012829;28;20061;-67
2023/06/10 06:41:53;;;;;;;0.10;0.10;;;;;;;23.78;56.39;101190.31;4916569;28;20134;-68
2023/06/10 06:44:25;;;;;;;2.53;0.50;;;;;;;23.87;56.11;101180.22;4936283;29;20520;-67
2023/06/10 06:46:54;;;;;;;0.17;0.15;;;;;;;23.89;55.96;101188.03;4938198;28;20043;-67
2023/06/10 06:49:20;;;;;;;0.30;0.20;;;;;;;24.01;55.90;101192.84;4940488;29;20556;-69
2023/06/10 06:51:45;;;;;;;0.43;0.35;;;;;;;24.17;56.00;101196.38;4923854;29;20126;-68
2023/06/10 06:54:12;;;;;;;0.95;0.43;;;;;;;24.28;55.63;101189.78;4928087;29;20546;-68
2023/06/10 06:56:38;;;;;;;0.40;0.20;;;;;;;24.33;54.84;101189.28;4946863;29;20146;-67
2023/06/10 06:59:25;;;;;;;0.30;0.30;;;;;;;24.47;54.92;101188.84;4945209;29;20055;-68
2023/06/10 07:01:53;;;;;;;1.13;0.30;;;;;;;24.50;54.58;101190.75;4842861;29;20057;-68
2023/06/10 07:04:21;;;;;;;3.92;0.43;;;;;;;24.58;54.24;101195.63;4850505;29;20650;-68
2023/06/10 07:06:47;;;;;;;0.93;0.32;;;;;;;24.72;53.87;101188.94;4854179;29;20038;-67
2023/06/10 07:09:13;;;;;;;1.08;0.40;;;;;;;24.59;53.40;101190.88;4850489;29;20494;-68
2023/06/10 07:11:39;;;;;;;1.23;0.55;;;;;;;24.61;54.15;101191.22;4846885;29;20053;-67
2023/06/10 07:14:04;;;;;;;2.83;0.50;;;;;;;24.79;54.75;101194.28;4848204;29;20519;-67
2023/06/10 07:16:50;;;;;;;0.82;0.20;;;;;;;24.87;53.80;101201.13;4852833;29;20064;-67
2023/06/10 07:19:16;;;;;;;1.48;0.75;;;;;;;25.01;53.55;101198.69;4837339;29;20050;-67
2023/06/10 07:21:41;;;;;;;0.88;0.70;;;;;;;25.04;53.59;101197.84;4846853;29;20382;-67
2023/06/10 07:24:07;;;;;;;0.60;0.40;;;;;;;25.25;53.14;101203.88;4846531;29;20050;-68
2023/06/10 07:26:32;;;;;;;2.05;0.88;;;;;;;25.41;53.02;101206.56;4849794;29;20049;-67
2023/06/10 07:28:58;;;;;;;1.95;0.45;;;;;;;25.36;52.09;101213.38;4846574;29;20042;-67
2023/06/10 07:31:24;;;;;;;0.82;0.50;;;;;;;25.29;52.64;101199.03;4867173;29;20569;-68
2023/06/10 07:33:50;;;;;;;1.85;0.57;;;;;;;25.51;52.57;101208.22;4854135;29;20210;-68
2023/06/10 07:36:36;;;;;;;1.02;0.55;;;;;;;25.57;52.53;101206.44;4852934;29;20053;-68
2023/06/10 07:39:02;;;;;;;0.40;0.40;;;;;;;25.79;51.71;101207.28;4845527;29;20056;-70
2023/06/10 07:41:27;;;;;;;1.15;0.15;;;;;;;25.88;51.96;101210.13;4870911;29;20041;-69
2023/06/10 07:43:54;;;;;;;0.38;0.38;;;;;;;25.97;51.93;101207.47;4886071;29;20056;-67
2023/06/10 07:46:21;;;;;;;0.82;0.13;;;;;;;26.12;51.75;101214.06;4873051;29;20039;-69
2023/06/10 07:48:47;;;;;;;0.52;0.25;;;;;;;26.12;50.89;101211.28;4893717;29;20045;-68
2023/06/10 07:51:12;;;;;;;0.90;0.28;;;;;;;26.26;51.44;101201.75;4896850;29;20068;-69
2023/06/10 07:53:38;;;;;;;0.80;0.45;;;;;;;26.40;50.09;101209.53;4897412;29;20047;-68
2023/06/10 07:56:03;;;;;;;1.02;0.40;;;;;;;26.36;50.94;101215.19;4923074;28;20403;-68
2023/06/10 07:58:29;;;;;;;1.40;0.50;;;;;;;26.37;51.00;101205.66;4973854;28;20518;-68
2023/06/10 08:00:54;;;;;;;0.98;0.55;;;;;;;26.51;50.58;101201.63;4961896;28;20050;-69
2023/06/10 08:03:22;;;;;;;1.60;0.63;;;;;;;26.39;49.92;101202.44;4950452;28;20094;-68
2023/06/10 08:05:50;;;;;;;0.30;0.30;;;;;;;26.31;49.81;101206.69;4953191;28;20481;-67
2023/06/10 08:08:16;;;;;;;0.50;0.50;;;;;;;26.39;50.89;101208.75;4965194;28;20031;-69
2023/06/10 08:10:41;;;;;;;1.55;0.40;;;;;;;26.68;50.08;101216.78;4964192;28;20436;-68
2023/06/10 08:13:08;;;;;;;2.22;0.50;;;;;;;26.74;50.85;101209.47;4955138;28;20301;-68
2023/06/10 08:15:33;;;;;;;2.03;0.50;;;;;;;26.81;50.18;101211.22;4980208;28;20042;-68
2023/06/10 08:17:59;;;;;;;1.00;0.43;;;;;;;27.02;49.47;101216.69;4992047;28;20036;-69
2023/06/10 08:20:24;;;;;;;1.95;0.70;;;;;;;27.24;49.29;101214.63;4981860;28;20126;-68
2023/06/10 08:22:50;;;;;;;2.75;0.50;;;;;;;27.12;48.98;101211.97;4984610;28;20042;-68
2023/06/10 08:25:15;;;;;;;0.43;0.43;;;;;;;27.19;49.60;101206.94;5004484;28;20029;-68
2023/06/10 08:27:41;;;;;;;0.55;0.52;;;;;;;27.35;49.10;101214.25;4990086;28;20042;-67
2023/06/10 08:30:07;;;;;;;0.60;0.60;;;;;;;27.44;49.51;101215.06;5004248;28;20096;-68
2023/06/10 08:32:33;;;;;;;0.77;0.50;;;;;;;27.37;49.07;101211.81;4987788;28;20029;-69
2023/06/10 08:34:58;;;;;;;0.88;0.40;;;;;;;27.70;48.58;101217.56;4997488;28;20079;-68
2023/06/10 08:37:24;;;;;;;2.05;0.40;;;;;;;27.71;47.82;101210.78;4997344;28;20040;-68
2023/06/10 08:39:50;;;;;;;1.17;0.38;;;;;;;27.70;47.98;101206.50;4985522;28;20470;-69
2023/06/10 08:42:38;;;;;;;0.55;0.50;;;;;;;27.49;47.74;101211.66;5013977;28;20052;-68
2023/06/10 08:45:06;;;;;;;2.05;0.80;;;;;;;27.56;48.50;101213.38;5000229;28;20042;-68
2023/06/10 08:47:37;;;;;;;4.43;0.60;;;;;;;27.86;48.34;101211.72;4994293;28;20469;-68
2023/06/10 08:50:04;;;;;;;1.95;0.32;;;;;;;28.01;48.23;101210.72;4994667;28;20342;-69
2023/06/10 08:52:38;;;;;;;0.95;0.50;;;;;;;28.16;48.03;101208.09;4980994;28;20061;-70
2023/06/10 08:55:11;;;;;;;2.25;0.88;;;;;;;28.44;47.43;101209.63;4987913;28;20046;-68
2023/06/10 08:57:37;;;;;;;0.70;0.60;;;;;;;28.47;47.89;101212.22;5005350;28;20042;-70
2023/06/10 09:00:03;;;;;;;0.50;0.32;;;;;;;28.55;47.07;101207.19;4995700;28;20029;-70
2023/06/10 09:02:28;;;;;;;1.48;0.45;;;;;;;28.73;45.79;101223.00;4988806;28;20099;-69
2023/06/10 09:04:56;;;;;;;3.30;0.50;;;;;;;28.72;46.60;101204.81;5005821;28;20038;-69
2023/06/10 09:07:22;;;;;;;0.93;0.50;;;;;;;28.69;46.99;101203.75;4991578;28;20030;-69
2023/06/10 09:09:49;;;;;;;0.63;0.50;;;;;;;28.96;47.66;101206.44;5014310;28;20025;-69
2023/06/10 09:12:15;;;;;;;0.80;0.50;;;;;;;29.09;46.65;101209.03;5008680;28;20132;-69
2023/06/10 09:14:41;;;;;;;0.75;0.45;;;;;;;29.15;46.18;101198.84;4999020;28;20048;-69
2023/06/10 09:17:07;;;;;;;0.95;0.55;;;;;;;29.21;46.17;101202.53;4988210;28;20185;-70
2023/06/10 09:19:36;;;;;;;1.02;0.70;;;;;;;29.27;45.13;101200.63;4996983;28;20133;-69
2023/06/10 09:22:01;;;;;;;1.40;0.75;;;;;;;29.24;46.06;101204.38;5004015;28;20053;-69
2023/06/10 09:24:27;;;;;;;0.65;0.28;;;;;;;29.45;46.82;101194.22;5002591;28;20410;-69
2023/06/10 09:27:06;;;;;;;2.08;1.13;;;;;;;29.62;45.82;101193.34;4986704;28;20189;-69
2023/06/10 09:29:53;;;;;;;0.50;0.50;;;;;;;29.72;45.34;101197.63;5004723;28;20044;-70
2023/06/10 09:32:19;;;;;;;0.73;0.55;;;;;;;30.04;44.41;101196.75;5000553;28;20091;-69
2023/06/10 09:34:45;;;;;;;1.40;0.50;;;;;;;29.67;44.76;101200.28;4990656;28;20037;-69
2023/06/10 09:37:13;;;;;;;1.05;0.70;;;;;;;29.65;45.75;101197.97;5011976;28;20403;-70
2023/06/10 09:39:39;;;;;;;1.08;0.70;;;;;;;29.68;45.29;101194.22;5009684;28;20179;-69
2023/06/10 09:42:18;;;;;;;0.85;0.65;;;;;;;29.80;45.78;101198.81;5008662;22;20456;-62
2023/06/10 09:44:51;;;;;;;1.63;0.55;;;;;;;30.00;45.54;101195.44;4974126;28;20042;-64
2023/06/10 09:47:22;;;;;;;1.63;0.70;;;;;;;30.22;46.40;101196.63;4969459;28;20049;-64
2023/06/10 09:49:53;;;;;;;0.93;0.80;;;;;;;30.40;44.65;101200.50;4963969;28;20445;-65
2023/06/10 09:52:26;;;;;;;2.45;0.60;;;;;;;30.48;44.53;101196.88;4970550;28;20616;-63
2023/06/10 09:54:52;;;;;;;2.53;0.47;;;;;;;30.59;43.96;101199.06;4977914;28;20045;-63
2023/06/10 09:57:19;;;;;;;1.15;0.63;;;;;;;30.69;44.27;101194.94;4967201;28;20042;-63
2023/06/10 09:59:46;;;;;;;1.52;1.25;;;;;;;30.43;43.90;101203.09;4974307;28;20719;-63
2023/06/10 10:02:35;;;;;;;0.95;0.80;;;;;;;30.39;44.28;101187.84;4941004;28;20129;-63
2023/06/10 10:05:06;;;;;;;1.27;1.00;;;;;;;30.50;43.81;101196.38;4917275;29;21119;-63
2023/06/10 10:07:32;;;;;;;2.60;1.02;;;;;;;30.60;44.56;101192.28;4913585;29;21937;-62
2023/06/10 10:09:57;;;;;;;1.58;0.93;;;;;;;30.65;44.48;101191.59;4923030;29;20058;-62
2023/06/10 10:12:23;;;;;;;1.10;0.77;;;;;;;30.56;44.09;101189.69;4912421;29;20051;-62
2023/06/10 10:14:50;;;;;;;1.95;1.17;;;;;;;30.99;44.11;101197.25;4920195;29;20047;-62
2023/06/10 10:17:17;;;;;;;1.02;0.70;;;;;;;31.22;43.82;101192.81;4920382;29;20036;-62
2023/06/10 10:19:48;;;;;;;0.95;0.60;;;;;;;31.43;43.82;101197.19;4908494;29;20059;-63
2023/06/10 10:22:39;;;;;;;2.20;0.82;;;;;;;31.21;43.20;101199.59;4929437;29;20167;-63
2023/06/10 10:25:15;;;;;;;0.75;0.70;;;;;;;31.46;43.21;101209.34;4927057;29;20039;-63
2023/06/10 10:27:48;;;;;;;0.60;0.60;;;;;;;31.59;42.87;101207.75;4933296;29;20075;-63
2023/06/10 10:30:17;;;;;;;1.10;0.60;;;;;;;31.71;42.89;101206.66;4930931;29;20055;-63
2023/06/10 10:33:09;;;;;;;2.75;0.60;;;;;;;31.86;43.44;101201.78;4929445;29;20034;-63
2023/06/10 10:35:36;;;;;;;0.80;0.50;;;;;;;31.94;42.79;101196.56;4915368;29;20387;-63
2023/06/10 10:38:02;;;;;;;0.85;0.70;;;;;;;31.94;42.86;101204.94;4926496;29;20506;-63
2023/06/10 10:40:32;;;;;;;1.10;0.68;;;;;;;32.17;43.54;101197.59;4936244;29;20042;-63
2023/06/10 10:42:59;;;;;;;1.02;0.70;;;;;;;32.41;42.14;101200.88;4967380;28;20093;-63
2023/06/10 10:45:28;;;;;;;0.80;0.68;;;;;;;32.29;42.12;101202.06;4962986;28;20044;-63
2023/06/10 10:47:57;;;;;;;3.47;0.95;;;;;;;32.34;41.81;101198.53;4983459;28;20038;-62
2023/06/10 10:50:23;;;;;;;3.25;1.10;;;;;;;31.79;42.08;101193.06;4962252;28;20489;-63
2023/06/10 10:52:53;;;;;;;1.23;0.80;;;;;;;31.93;42.40;101193.03;4988261;28;20161;-63
2023/06/10 10:55:19;;;;;;;;;;;;;;;32.18;41.68;101194.31;4972132;28;20393;-63
2023/06/10 10:58:16;;;;;;;1.48;0.90;;;;;;;32.25;41.55;101193.13;4973235;28;19914;-63
2023/06/10 11:00:45;;;;;;;1.35;1.00;;;;;;;32.07;42.01;101202.56;4950855;28;20788;-63
2023/06/10 11:03:18;;;;;;;1.38;0.85;;;;;;;31.72;42.27;101183.13;4984722;28;20038;-63
2023/06/10 11:05:48;;;;;;;3.38;1.08;;;;;;;31.66;42.56;101195.44;4982643;28;20034;-63
2023/06/10 11:08:15;;;;;;;0.63;0.52;;;;;;;31.74;42.99;101194.56;4984709;28;20728;-63
2023/06/10 11:10:52;;;;;;;0.60;0.60;;;;;;;31.92;42.77;101194.28;4984138;28;20031;-62
2023/06/10 11:13:20;;;;;;;1.27;0.82;;;;;;;32.17;42.66;101190.00;4981455;28;20113;-63
2023/06/10 11:15:47;;;;;;;1.45;0.82;;;;;;;32.23;42.77;101196.41;4989703;28;20515;-63
2023/06/10 11:18:19;;;;;;;3.05;0.95;;;;;;;31.89;42.58;101188.91;4976853;28;20521;-63
2023/06/10 11:21:05;;;;;;;0.93;0.70;;;;;;;32.05;42.71;101196.72;4978927;28;20077;-63
2023/06/10 11:23:33;;;;;;;2.40;1.20;;;;;;;31.93;42.25;101195.81;4977103;28;20108;-63
2023/06/10 11:26:14;;;;;;;1.48;0.68;;;;;;;32.09;42.77;101179.78;4987906;28;20030;-63
2023/06/10 11:29:04;;;;;;;1.48;0.80;;;;;;;32.19;42.57;101187.47;4983542;28;20037;-64